sensor_id;sensor_type;location;lat;lon;timestamp;P1;durP1;ratioP1;P2;durP2;ratioP2
46288;SDS011;32022;46.158;14.604;2022-07-23T00:00:12;5.45;;;3.40;;
46288;SDS011;32022;46.158;14.604;2022-07-23T00:02:38;4.20;;;2.97;;
46288;SDS011;32022;46.158;14.604;2022-07-23T00:05:03;4.93;;;3.50;;
46288;SDS011;32022;46.158;14.604;2022-07-23T00:07:28;4.80;;;3.45;;
46288;SDS011;32022;46.158;14.604;2022-07-23T00:09:54;4.90;;;3.60;;
46288;SDS011;32022;46.158;14.604;2022-07-23T00:12:19;3.93;;;3.30;;
46288;SDS011;32022;46.158;14.604;2022-07-23T00:14:45;4.28;;;3.30;;
46288;SDS011;32022;46.158;14.604;2022-07-23T00:17:10;4.17;;;3.33;;
46288;SDS011;32022;46.158;14.604;2022-07-23T00:19:35;4.30;;;3.60;;
46288;SDS011;32022;46.158;14.604;2022-07-23T00:22:00;5.17;;;3.50;;
46288;SDS011;32022;46.158;14.604;2022-07-23T00:24:25;4.50;;;3.47;;
46288;SDS011;32022;46.158;14.604;2022-07-23T00:26:51;4.57;;;3.63;;
46288;SDS011;32022;46.158;14.604;2022-07-23T00:29:16;4.73;;;3.30;;
46288;SDS011;32022;46.158;14.604;2022-07-23T00:31:41;4.20;;;3.43;;
46288;SDS011;32022;46.158;14.604;2022-07-23T00:34:06;4.47;;;3.10;;
46288;SDS011;32022;46.158;14.604;2022-07-23T00:36:32;4.57;;;3.50;;
46288;SDS011;32022;46.158;14.604;2022-07-23T00:38:57;5.00;;;3.33;;
46288;SDS011;32022;46.158;14.604;2022-07-23T00:41:22;5.40;;;3.50;;
46288;SDS011;32022;46.158;14.604;2022-07-23T00:43:47;4.10;;;3.50;;
46288;SDS011;32022;46.158;14.604;2022-07-23T00:46:13;5.30;;;3.33;;
46288;SDS011;32022;46.158;14.604;2022-07-23T00:48:38;4.70;;;3.53;;
46288;SDS011;32022;46.158;14.604;2022-07-23T00:51:03;5.53;;;3.60;;
46288;SDS011;32022;46.158;14.604;2022-07-23T00:53:28;5.22;;;3.72;;
46288;SDS011;32022;46.158;14.604;2022-07-23T00:55:53;4.73;;;4.00;;
46288;SDS011;32022;46.158;14.604;2022-07-23T00:58:19;4.40;;;3.45;;
46288;SDS011;32022;46.158;14.604;2022-07-23T01:00:44;4.60;;;3.33;;
46288;SDS011;32022;46.158;14.604;2022-07-23T01:03:09;4.78;;;3.88;;
46288;SDS011;32022;46.158;14.604;2022-07-23T01:05:35;4.70;;;3.70;;
46288;SDS011;32022;46.158;14.604;2022-07-23T01:08:00;4.70;;;3.70;;
46288;SDS011;32022;46.158;14.604;2022-07-23T01:10:25;5.40;;;3.58;;
46288;SDS011;32022;46.158;14.604;2022-07-23T01:12:57;4.63;;;3.70;;
46288;SDS011;32022;46.158;14.604;2022-07-23T01:15:22;4.90;;;3.70;;
46288;SDS011;32022;46.158;14.604;2022-07-23T01:17:48;4.90;;;4.10;;
46288;SDS011;32022;46.158;14.604;2022-07-23T01:20:13;5.00;;;3.93;;
46288;SDS011;32022;46.158;14.604;2022-07-23T01:22:38;4.43;;;3.87;;
46288;SDS011;32022;46.158;14.604;2022-07-23T01:25:03;4.90;;;3.73;;
46288;SDS011;32022;46.158;14.604;2022-07-23T01:27:29;6.05;;;4.00;;
46288;SDS011;32022;46.158;14.604;2022-07-23T01:29:54;5.27;;;4.27;;
46288;SDS011;32022;46.158;14.604;2022-07-23T01:32:19;5.35;;;3.63;;
46288;SDS011;32022;46.158;14.604;2022-07-23T01:34:45;5.67;;;4.07;;
46288;SDS011;32022;46.158;14.604;2022-07-23T01:37:10;5.20;;;3.77;;
46288;SDS011;32022;46.158;14.604;2022-07-23T01:39:35;4.90;;;3.87;;
46288;SDS011;32022;46.158;14.604;2022-07-23T01:42:00;5.73;;;3.90;;
46288;SDS011;32022;46.158;14.604;2022-07-23T01:44:25;6.47;;;4.30;;
46288;SDS011;32022;46.158;14.604;2022-07-23T01:46:50;5.40;;;3.90;;
46288;SDS011;32022;46.158;14.604;2022-07-23T01:49:16;6.13;;;4.03;;
46288;SDS011;32022;46.158;14.604;2022-07-23T01:51:41;5.63;;;4.27;;
46288;SDS011;32022;46.158;14.604;2022-07-23T01:54:24;5.72;;;4.28;;
46288;SDS011;32022;46.158;14.604;2022-07-23T01:56:50;5.38;;;4.13;;
46288;SDS011;32022;46.158;14.604;2022-07-23T01:59:15;4.93;;;3.93;;
46288;SDS011;32022;46.158;14.604;2022-07-23T02:01:40;5.43;;;4.30;;
46288;SDS011;32022;46.158;14.604;2022-07-23T02:04:05;4.97;;;4.20;;
46288;SDS011;32022;46.158;14.604;2022-07-23T02:06:30;5.23;;;4.23;;
46288;SDS011;32022;46.158;14.604;2022-07-23T02:08:55;5.40;;;4.33;;
46288;SDS011;32022;46.158;14.604;2022-07-23T02:11:21;4.70;;;3.80;;
46288;SDS011;32022;46.158;14.604;2022-07-23T02:13:46;6.80;;;4.20;;
46288;SDS011;32022;46.158;14.604;2022-07-23T02:16:11;5.47;;;4.50;;
46288;SDS011;32022;46.158;14.604;2022-07-23T02:18:36;5.43;;;3.87;;
46288;SDS011;32022;46.158;14.604;2022-07-23T02:21:01;5.83;;;4.60;;
46288;SDS011;32022;46.158;14.604;2022-07-23T02:23:27;5.30;;;4.30;;
46288;SDS011;32022;46.158;14.604;2022-07-23T02:25:52;5.57;;;4.37;;
46288;SDS011;32022;46.158;14.604;2022-07-23T02:28:17;5.23;;;4.43;;
46288;SDS011;32022;46.158;14.604;2022-07-23T02:30:42;5.00;;;4.40;;
46288;SDS011;32022;46.158;14.604;2022-07-23T02:33:08;5.32;;;4.22;;
46288;SDS011;32022;46.158;14.604;2022-07-23T02:35:34;5.20;;;4.37;;
46288;SDS011;32022;46.158;14.604;2022-07-23T02:37:59;5.97;;;4.75;;
46288;SDS011;32022;46.158;14.604;2022-07-23T02:40:24;5.77;;;4.60;;
46288;SDS011;32022;46.158;14.604;2022-07-23T02:42:49;5.30;;;4.60;;
46288;SDS011;32022;46.158;14.604;2022-07-23T02:45:14;5.07;;;4.57;;
46288;SDS011;32022;46.158;14.604;2022-07-23T02:47:40;5.50;;;4.37;;
46288;SDS011;32022;46.158;14.604;2022-07-23T02:50:05;5.38;;;4.63;;
46288;SDS011;32022;46.158;14.604;2022-07-23T02:52:32;5.22;;;4.35;;
46288;SDS011;32022;46.158;14.604;2022-07-23T02:54:57;5.33;;;4.47;;
46288;SDS011;32022;46.158;14.604;2022-07-23T02:57:22;5.90;;;4.63;;
46288;SDS011;32022;46.158;14.604;2022-07-23T02:59:47;5.63;;;4.63;;
46288;SDS011;32022;46.158;14.604;2022-07-23T03:02:12;5.77;;;4.63;;
46288;SDS011;32022;46.158;14.604;2022-07-23T03:04:38;5.93;;;4.50;;
46288;SDS011;32022;46.158;14.604;2022-07-23T03:07:03;4.80;;;4.28;;
46288;SDS011;32022;46.158;14.604;2022-07-23T03:09:28;6.78;;;4.28;;
46288;SDS011;32022;46.158;14.604;2022-07-23T03:11:53;4.97;;;4.17;;
46288;SDS011;32022;46.158;14.604;2022-07-23T03:14:19;6.30;;;4.50;;
46288;SDS011;32022;46.158;14.604;2022-07-23T03:16:44;5.03;;;4.28;;
46288;SDS011;32022;46.158;14.604;2022-07-23T03:19:09;5.35;;;4.43;;
46288;SDS011;32022;46.158;14.604;2022-07-23T03:21:34;6.07;;;4.40;;
46288;SDS011;32022;46.158;14.604;2022-07-23T03:24:03;5.38;;;4.50;;
46288;SDS011;32022;46.158;14.604;2022-07-23T03:26:29;5.43;;;4.35;;
46288;SDS011;32022;46.158;14.604;2022-07-23T03:28:54;5.25;;;4.32;;
46288;SDS011;32022;46.158;14.604;2022-07-23T03:31:19;5.68;;;4.72;;
46288;SDS011;32022;46.158;14.604;2022-07-23T03:33:44;6.27;;;4.17;;
46288;SDS011;32022;46.158;14.604;2022-07-23T03:36:10;6.00;;;4.30;;
46288;SDS011;32022;46.158;14.604;2022-07-23T03:38:35;5.22;;;4.25;;
46288;SDS011;32022;46.158;14.604;2022-07-23T03:41:00;7.83;;;4.43;;
46288;SDS011;32022;46.158;14.604;2022-07-23T03:43:25;5.73;;;4.10;;
46288;SDS011;32022;46.158;14.604;2022-07-23T03:45:51;7.43;;;4.50;;
46288;SDS011;32022;46.158;14.604;2022-07-23T03:48:16;4.95;;;4.10;;
46288;SDS011;32022;46.158;14.604;2022-07-23T03:50:41;5.00;;;4.47;;
46288;SDS011;32022;46.158;14.604;2022-07-23T03:53:06;5.03;;;4.30;;
46288;SDS011;32022;46.158;14.604;2022-07-23T03:55:31;5.97;;;4.10;;
46288;SDS011;32022;46.158;14.604;2022-07-23T03:57:57;7.20;;;4.28;;
46288;SDS011;32022;46.158;14.604;2022-07-23T04:00:22;5.93;;;4.50;;
46288;SDS011;32022;46.158;14.604;2022-07-23T04:02:47;8.17;;;4.20;;
46288;SDS011;32022;46.158;14.604;2022-07-23T04:05:12;7.47;;;4.40;;
46288;SDS011;32022;46.158;14.604;2022-07-23T04:07:37;5.77;;;4.40;;
46288;SDS011;32022;46.158;14.604;2022-07-23T04:10:03;6.80;;;4.70;;
46288;SDS011;32022;46.158;14.604;2022-07-23T04:12:28;5.95;;;4.57;;
46288;SDS011;32022;46.158;14.604;2022-07-23T04:14:53;7.67;;;4.30;;
46288;SDS011;32022;46.158;14.604;2022-07-23T04:17:19;5.87;;;4.40;;
46288;SDS011;32022;46.158;14.604;2022-07-23T04:19:44;6.03;;;4.60;;
46288;SDS011;32022;46.158;14.604;2022-07-23T04:22:10;4.80;;;4.07;;
46288;SDS011;32022;46.158;14.604;2022-07-23T04:24:35;6.55;;;4.50;;
46288;SDS011;32022;46.158;14.604;2022-07-23T04:27:01;6.05;;;4.90;;
46288;SDS011;32022;46.158;14.604;2022-07-23T04:29:26;5.65;;;4.28;;
46288;SDS011;32022;46.158;14.604;2022-07-23T04:31:51;6.93;;;4.50;;
46288;SDS011;32022;46.158;14.604;2022-07-23T04:34:16;6.57;;;4.40;;
46288;SDS011;32022;46.158;14.604;2022-07-23T04:36:42;5.50;;;4.30;;
46288;SDS011;32022;46.158;14.604;2022-07-23T04:39:07;5.97;;;4.53;;
46288;SDS011;32022;46.158;14.604;2022-07-23T04:41:32;5.88;;;4.95;;
46288;SDS011;32022;46.158;14.604;2022-07-23T04:43:59;5.88;;;4.47;;
46288;SDS011;32022;46.158;14.604;2022-07-23T04:46:24;6.00;;;4.75;;
46288;SDS011;32022;46.158;14.604;2022-07-23T04:48:50;6.88;;;4.75;;
46288;SDS011;32022;46.158;14.604;2022-07-23T04:51:15;6.07;;;5.00;;
46288;SDS011;32022;46.158;14.604;2022-07-23T04:53:40;7.73;;;4.90;;
46288;SDS011;32022;46.158;14.604;2022-07-23T04:56:05;6.23;;;4.80;;
46288;SDS011;32022;46.158;14.604;2022-07-23T04:58:30;6.55;;;4.93;;
46288;SDS011;32022;46.158;14.604;2022-07-23T05:00:56;5.47;;;4.88;;
46288;SDS011;32022;46.158;14.604;2022-07-23T05:03:23;5.60;;;4.80;;
46288;SDS011;32022;46.158;14.604;2022-07-23T05:05:48;7.03;;;4.97;;
46288;SDS011;32022;46.158;14.604;2022-07-23T05:08:13;5.78;;;4.90;;
46288;SDS011;32022;46.158;14.604;2022-07-23T05:10:38;6.23;;;4.93;;
46288;SDS011;32022;46.158;14.604;2022-07-23T05:13:03;6.27;;;5.00;;
46288;SDS011;32022;46.158;14.604;2022-07-23T05:15:29;7.00;;;5.20;;
46288;SDS011;32022;46.158;14.604;2022-07-23T05:17:55;6.57;;;5.15;;
46288;SDS011;32022;46.158;14.604;2022-07-23T05:20:20;6.30;;;5.10;;
46288;SDS011;32022;46.158;14.604;2022-07-23T05:22:45;5.88;;;5.00;;
46288;SDS011;32022;46.158;14.604;2022-07-23T05:25:10;6.07;;;5.10;;
46288;SDS011;32022;46.158;14.604;2022-07-23T05:27:36;7.22;;;5.00;;
46288;SDS011;32022;46.158;14.604;2022-07-23T05:30:01;6.88;;;4.72;;
46288;SDS011;32022;46.158;14.604;2022-07-23T05:32:26;6.70;;;5.53;;
46288;SDS011;32022;46.158;14.604;2022-07-23T05:34:51;5.70;;;5.10;;
46288;SDS011;32022;46.158;14.604;2022-07-23T05:37:17;6.23;;;5.50;;
46288;SDS011;32022;46.158;14.604;2022-07-23T05:39:42;6.83;;;5.33;;
46288;SDS011;32022;46.158;14.604;2022-07-23T05:42:07;5.90;;;5.17;;
46288;SDS011;32022;46.158;14.604;2022-07-23T05:44:32;8.07;;;5.20;;
46288;SDS011;32022;46.158;14.604;2022-07-23T05:46:58;5.93;;;5.22;;
46288;SDS011;32022;46.158;14.604;2022-07-23T05:49:23;5.47;;;4.87;;
46288;SDS011;32022;46.158;14.604;2022-07-23T05:51:48;7.67;;;5.23;;
46288;SDS011;32022;46.158;14.604;2022-07-23T05:54:13;8.10;;;5.30;;
46288;SDS011;32022;46.158;14.604;2022-07-23T05:56:38;8.77;;;5.60;;
46288;SDS011;32022;46.158;14.604;2022-07-23T05:59:04;5.97;;;5.23;;
46288;SDS011;32022;46.158;14.604;2022-07-23T06:01:29;7.47;;;5.20;;
46288;SDS011;32022;46.158;14.604;2022-07-23T06:03:54;8.43;;;5.60;;
46288;SDS011;32022;46.158;14.604;2022-07-23T06:06:19;8.25;;;5.38;;
46288;SDS011;32022;46.158;14.604;2022-07-23T06:08:45;6.75;;;4.90;;
46288;SDS011;32022;46.158;14.604;2022-07-23T06:11:10;6.77;;;5.47;;
46288;SDS011;32022;46.158;14.604;2022-07-23T06:13:35;8.88;;;5.35;;
46288;SDS011;32022;46.158;14.604;2022-07-23T06:16:01;9.07;;;5.13;;
46288;SDS011;32022;46.158;14.604;2022-07-23T06:18:26;7.67;;;5.33;;
46288;SDS011;32022;46.158;14.604;2022-07-23T06:20:51;7.27;;;5.10;;
46288;SDS011;32022;46.158;14.604;2022-07-23T06:23:16;6.10;;;5.03;;
46288;SDS011;32022;46.158;14.604;2022-07-23T06:25:42;7.25;;;5.20;;
46288;SDS011;32022;46.158;14.604;2022-07-23T06:28:07;7.13;;;5.25;;
46288;SDS011;32022;46.158;14.604;2022-07-23T06:30:32;7.75;;;5.47;;
46288;SDS011;32022;46.158;14.604;2022-07-23T06:32:57;7.68;;;5.45;;
46288;SDS011;32022;46.158;14.604;2022-07-23T06:35:23;6.33;;;5.57;;
46288;SDS011;32022;46.158;14.604;2022-07-23T06:37:48;6.00;;;5.10;;
46288;SDS011;32022;46.158;14.604;2022-07-23T06:40:13;6.63;;;5.07;;
46288;SDS011;32022;46.158;14.604;2022-07-23T06:42:38;8.13;;;5.17;;
46288;SDS011;32022;46.158;14.604;2022-07-23T06:45:07;6.78;;;5.15;;
46288;SDS011;32022;46.158;14.604;2022-07-23T06:47:32;7.88;;;5.53;;
46288;SDS011;32022;46.158;14.604;2022-07-23T06:49:57;6.60;;;5.63;;
46288;SDS011;32022;46.158;14.604;2022-07-23T06:52:23;6.97;;;5.18;;
46288;SDS011;32022;46.158;14.604;2022-07-23T06:54:48;7.30;;;5.10;;
46288;SDS011;32022;46.158;14.604;2022-07-23T06:57:14;8.52;;;5.63;;
46288;SDS011;32022;46.158;14.604;2022-07-23T06:59:39;6.93;;;5.45;;
46288;SDS011;32022;46.158;14.604;2022-07-23T07:02:05;6.38;;;4.95;;
46288;SDS011;32022;46.158;14.604;2022-07-23T07:04:30;7.00;;;5.60;;
46288;SDS011;32022;46.158;14.604;2022-07-23T07:06:56;6.97;;;5.45;;
46288;SDS011;32022;46.158;14.604;2022-07-23T07:09:22;6.43;;;5.30;;
46288;SDS011;32022;46.158;14.604;2022-07-23T07:11:47;7.35;;;6.00;;
46288;SDS011;32022;46.158;14.604;2022-07-23T07:14:12;7.27;;;5.50;;
46288;SDS011;32022;46.158;14.604;2022-07-23T07:16:37;7.13;;;5.40;;
46288;SDS011;32022;46.158;14.604;2022-07-23T07:19:02;6.73;;;5.53;;
46288;SDS011;32022;46.158;14.604;2022-07-23T07:21:28;5.97;;;5.07;;
46288;SDS011;32022;46.158;14.604;2022-07-23T07:23:53;7.63;;;5.17;;
46288;SDS011;32022;46.158;14.604;2022-07-23T07:26:18;6.57;;;5.47;;
46288;SDS011;32022;46.158;14.604;2022-07-23T07:28:43;6.70;;;5.50;;
46288;SDS011;32022;46.158;14.604;2022-07-23T07:31:09;6.47;;;5.50;;
46288;SDS011;32022;46.158;14.604;2022-07-23T07:33:34;6.40;;;5.40;;
46288;SDS011;32022;46.158;14.604;2022-07-23T07:35:59;5.60;;;4.97;;
46288;SDS011;32022;46.158;14.604;2022-07-23T07:38:25;6.90;;;5.55;;
46288;SDS011;32022;46.158;14.604;2022-07-23T07:40:50;6.80;;;5.10;;
46288;SDS011;32022;46.158;14.604;2022-07-23T07:43:15;5.83;;;4.70;;
46288;SDS011;32022;46.158;14.604;2022-07-23T07:45:41;5.43;;;4.70;;
46288;SDS011;32022;46.158;14.604;2022-07-23T07:48:06;7.00;;;5.53;;
46288;SDS011;32022;46.158;14.604;2022-07-23T07:50:31;6.07;;;5.17;;
46288;SDS011;32022;46.158;14.604;2022-07-23T07:52:56;5.93;;;4.90;;
46288;SDS011;32022;46.158;14.604;2022-07-23T07:55:21;6.30;;;5.07;;
46288;SDS011;32022;46.158;14.604;2022-07-23T07:57:47;5.38;;;4.47;;
46288;SDS011;32022;46.158;14.604;2022-07-23T08:00:12;6.07;;;4.57;;
46288;SDS011;32022;46.158;14.604;2022-07-23T08:02:47;6.18;;;5.10;;
46288;SDS011;32022;46.158;14.604;2022-07-23T08:05:13;6.97;;;5.22;;
46288;SDS011;32022;46.158;14.604;2022-07-23T08:07:38;5.82;;;4.80;;
46288;SDS011;32022;46.158;14.604;2022-07-23T08:10:05;7.10;;;5.00;;
46288;SDS011;32022;46.158;14.604;2022-07-23T08:12:47;6.03;;;4.60;;
46288;SDS011;32022;46.158;14.604;2022-07-23T08:15:13;5.93;;;4.53;;
46288;SDS011;32022;46.158;14.604;2022-07-23T08:17:38;5.47;;;4.53;;
46288;SDS011;32022;46.158;14.604;2022-07-23T08:20:04;5.50;;;4.68;;
46288;SDS011;32022;46.158;14.604;2022-07-23T08:22:49;5.05;;;4.15;;
46288;SDS011;32022;46.158;14.604;2022-07-23T08:25:15;5.07;;;4.20;;
46288;SDS011;32022;46.158;14.604;2022-07-23T08:27:41;5.43;;;4.20;;
46288;SDS011;32022;46.158;14.604;2022-07-23T08:30:07;5.20;;;4.23;;
46288;SDS011;32022;46.158;14.604;2022-07-23T08:32:32;5.68;;;4.80;;
46288;SDS011;32022;46.158;14.604;2022-07-23T08:34:57;5.13;;;4.33;;
46288;SDS011;32022;46.158;14.604;2022-07-23T08:37:23;4.97;;;4.27;;
46288;SDS011;32022;46.158;14.604;2022-07-23T08:39:48;5.17;;;4.13;;
46288;SDS011;32022;46.158;14.604;2022-07-23T08:42:13;5.77;;;4.37;;
46288;SDS011;32022;46.158;14.604;2022-07-23T08:44:39;4.65;;;3.90;;
46288;SDS011;32022;46.158;14.604;2022-07-23T08:47:06;5.30;;;4.10;;
46288;SDS011;32022;46.158;14.604;2022-07-23T08:49:32;4.63;;;3.88;;
46288;SDS011;32022;46.158;14.604;2022-07-23T08:51:57;5.00;;;4.13;;
46288;SDS011;32022;46.158;14.604;2022-07-23T08:54:22;5.10;;;4.03;;
46288;SDS011;32022;46.158;14.604;2022-07-23T08:56:48;4.93;;;3.90;;
46288;SDS011;32022;46.158;14.604;2022-07-23T08:59:13;5.75;;;4.38;;
46288;SDS011;32022;46.158;14.604;2022-07-23T09:01:39;5.03;;;4.22;;
46288;SDS011;32022;46.158;14.604;2022-07-23T09:04:04;5.13;;;4.32;;
46288;SDS011;32022;46.158;14.604;2022-07-23T09:06:29;5.30;;;4.30;;
46288;SDS011;32022;46.158;14.604;2022-07-23T09:08:54;6.20;;;4.30;;
46288;SDS011;32022;46.158;14.604;2022-07-23T09:11:20;5.38;;;4.55;;
46288;SDS011;32022;46.158;14.604;2022-07-23T09:13:46;6.25;;;4.40;;
46288;SDS011;32022;46.158;14.604;2022-07-23T09:16:13;4.97;;;4.25;;
46288;SDS011;32022;46.158;14.604;2022-07-23T09:23:41;5.22;;;4.30;;
46288;SDS011;32022;46.158;14.604;2022-07-23T09:26:52;5.35;;;4.65;;
46288;SDS011;32022;46.158;14.604;2022-07-23T09:31:20;4.87;;;4.10;;
46288;SDS011;32022;46.158;14.604;2022-07-23T09:33:45;5.22;;;4.45;;
46288;SDS011;32022;46.158;14.604;2022-07-23T09:36:11;5.20;;;4.43;;
46288;SDS011;32022;46.158;14.604;2022-07-23T09:38:37;5.22;;;4.47;;
46288;SDS011;32022;46.158;14.604;2022-07-23T09:41:12;4.93;;;4.25;;
46288;SDS011;32022;46.158;14.604;2022-07-23T09:43:38;5.15;;;4.18;;
46288;SDS011;32022;46.158;14.604;2022-07-23T09:48:44;4.93;;;4.32;;
46288;SDS011;32022;46.158;14.604;2022-07-23T09:51:09;5.57;;;4.90;;
46288;SDS011;32022;46.158;14.604;2022-07-23T09:53:35;5.40;;;4.50;;
46288;SDS011;32022;46.158;14.604;2022-07-23T09:56:00;5.77;;;4.90;;
46288;SDS011;32022;46.158;14.604;2022-07-23T09:58:25;6.15;;;5.32;;
46288;SDS011;32022;46.158;14.604;2022-07-23T10:00:51;5.57;;;4.90;;
46288;SDS011;32022;46.158;14.604;2022-07-23T10:03:17;5.85;;;5.10;;
46288;SDS011;32022;46.158;14.604;2022-07-23T10:05:42;5.93;;;4.80;;
46288;SDS011;32022;46.158;14.604;2022-07-23T10:08:09;6.28;;;5.43;;
46288;SDS011;32022;46.158;14.604;2022-07-23T10:10:35;6.43;;;5.40;;
46288;SDS011;32022;46.158;14.604;2022-07-23T10:13:01;6.45;;;5.43;;
46288;SDS011;32022;46.158;14.604;2022-07-23T10:15:26;6.10;;;4.90;;
46288;SDS011;32022;46.158;14.604;2022-07-23T10:17:52;6.25;;;5.60;;
46288;SDS011;32022;46.158;14.604;2022-07-23T10:20:17;6.18;;;5.30;;
46288;SDS011;32022;46.158;14.604;2022-07-23T10:22:44;6.70;;;5.67;;
46288;SDS011;32022;46.158;14.604;2022-07-23T10:25:15;6.30;;;5.70;;
46288;SDS011;32022;46.158;14.604;2022-07-23T10:27:48;6.15;;;5.35;;
46288;SDS011;32022;46.158;14.604;2022-07-23T10:30:19;6.30;;;5.70;;
46288;SDS011;32022;46.158;14.604;2022-07-23T10:37:55;6.60;;;5.90;;
46288;SDS011;32022;46.158;14.604;2022-07-23T10:40:21;6.43;;;5.70;;
46288;SDS011;32022;46.158;14.604;2022-07-23T10:42:48;7.00;;;6.30;;
46288;SDS011;32022;46.158;14.604;2022-07-23T10:45:36;7.03;;;6.30;;
46288;SDS011;32022;46.158;14.604;2022-07-23T10:48:19;7.00;;;6.15;;
46288;SDS011;32022;46.158;14.604;2022-07-23T10:53:29;6.93;;;6.00;;
46288;SDS011;32022;46.158;14.604;2022-07-23T10:56:14;7.50;;;6.45;;
46288;SDS011;32022;46.158;14.604;2022-07-23T10:58:46;7.22;;;6.20;;
46288;SDS011;32022;46.158;14.604;2022-07-23T11:03:55;7.90;;;6.63;;
46288;SDS011;32022;46.158;14.604;2022-07-23T11:06:21;7.47;;;6.32;;
46288;SDS011;32022;46.158;14.604;2022-07-23T11:08:46;7.70;;;6.83;;
46288;SDS011;32022;46.158;14.604;2022-07-23T11:11:11;8.03;;;6.67;;
46288;SDS011;32022;46.158;14.604;2022-07-23T11:13:38;7.43;;;6.07;;
46288;SDS011;32022;46.158;14.604;2022-07-23T11:16:04;7.50;;;6.57;;
46288;SDS011;32022;46.158;14.604;2022-07-23T11:34:24;7.93;;;7.13;;
46288;SDS011;32022;46.158;14.604;2022-07-23T11:36:50;8.18;;;7.30;;
46288;SDS011;32022;46.158;14.604;2022-07-23T11:39:15;8.32;;;6.72;;
46288;SDS011;32022;46.158;14.604;2022-07-23T11:41:43;8.63;;;7.50;;
46288;SDS011;32022;46.158;14.604;2022-07-23T11:44:27;8.50;;;7.60;;
46288;SDS011;32022;46.158;14.604;2022-07-23T11:46:56;8.40;;;7.43;;
46288;SDS011;32022;46.158;14.604;2022-07-23T11:49:22;9.10;;;8.10;;
46288;SDS011;32022;46.158;14.604;2022-07-23T11:52:01;9.00;;;8.10;;
46288;SDS011;32022;46.158;14.604;2022-07-23T11:54:27;9.88;;;8.23;;
46288;SDS011;32022;46.158;14.604;2022-07-23T11:56:56;9.70;;;7.63;;
46288;SDS011;32022;46.158;14.604;2022-07-23T11:59:22;9.43;;;8.43;;
46288;SDS011;32022;46.158;14.604;2022-07-23T12:02:00;8.80;;;7.90;;
46288;SDS011;32022;46.158;14.604;2022-07-23T12:07:04;8.77;;;7.88;;
46288;SDS011;32022;46.158;14.604;2022-07-23T12:09:29;9.43;;;8.23;;
46288;SDS011;32022;46.158;14.604;2022-07-23T12:11:58;9.77;;;8.30;;
46288;SDS011;32022;46.158;14.604;2022-07-23T12:14:23;9.65;;;8.55;;
46288;SDS011;32022;46.158;14.604;2022-07-23T12:17:06;9.17;;;8.27;;
46288;SDS011;32022;46.158;14.604;2022-07-23T12:19:31;9.13;;;7.93;;
46288;SDS011;32022;46.158;14.604;2022-07-23T12:21:56;8.50;;;7.60;;
46288;SDS011;32022;46.158;14.604;2022-07-23T12:24:21;9.07;;;8.00;;
46288;SDS011;32022;46.158;14.604;2022-07-23T12:29:36;8.45;;;7.55;;
46288;SDS011;32022;46.158;14.604;2022-07-23T12:32:02;9.10;;;8.00;;
46288;SDS011;32022;46.158;14.604;2022-07-23T12:34:27;9.48;;;8.50;;
46288;SDS011;32022;46.158;14.604;2022-07-23T12:36:53;10.23;;;8.18;;
46288;SDS011;32022;46.158;14.604;2022-07-23T12:39:30;10.00;;;8.40;;
46288;SDS011;32022;46.158;14.604;2022-07-23T12:41:56;9.23;;;8.18;;
46288;SDS011;32022;46.158;14.604;2022-07-23T12:44:21;9.03;;;7.90;;
46288;SDS011;32022;46.158;14.604;2022-07-23T12:46:49;8.63;;;7.70;;
46288;SDS011;32022;46.158;14.604;2022-07-23T12:49:24;9.18;;;8.13;;
46288;SDS011;32022;46.158;14.604;2022-07-23T12:51:50;8.95;;;7.57;;
46288;SDS011;32022;46.158;14.604;2022-07-23T12:54:15;8.83;;;7.83;;
46288;SDS011;32022;46.158;14.604;2022-07-23T12:56:40;9.23;;;7.95;;
46288;SDS011;32022;46.158;14.604;2022-07-23T12:59:09;8.75;;;7.85;;
46288;SDS011;32022;46.158;14.604;2022-07-23T13:01:45;8.32;;;7.53;;
46288;SDS011;32022;46.158;14.604;2022-07-23T13:06:43;8.53;;;7.60;;
46288;SDS011;32022;46.158;14.604;2022-07-23T13:09:09;8.98;;;7.60;;
46288;SDS011;32022;46.158;14.604;2022-07-23T13:11:34;8.95;;;7.78;;
46288;SDS011;32022;46.158;14.604;2022-07-23T13:14:00;8.43;;;7.53;;
46288;SDS011;32022;46.158;14.604;2022-07-23T13:16:26;8.35;;;7.43;;
46288;SDS011;32022;46.158;14.604;2022-07-23T13:18:51;8.43;;;7.53;;
46288;SDS011;32022;46.158;14.604;2022-07-23T13:21:16;8.40;;;7.50;;
46288;SDS011;32022;46.158;14.604;2022-07-23T13:23:42;8.40;;;7.53;;
46288;SDS011;32022;46.158;14.604;2022-07-23T13:26:07;9.18;;;7.72;;
46288;SDS011;32022;46.158;14.604;2022-07-23T13:28:32;8.23;;;7.20;;
46288;SDS011;32022;46.158;14.604;2022-07-23T13:30:57;8.50;;;7.30;;
46288;SDS011;32022;46.158;14.604;2022-07-23T13:33:23;8.00;;;7.13;;
46288;SDS011;32022;46.158;14.604;2022-07-23T13:35:49;8.38;;;7.45;;
46288;SDS011;32022;46.158;14.604;2022-07-23T13:38:15;7.95;;;6.95;;
46288;SDS011;32022;46.158;14.604;2022-07-23T13:40:41;7.57;;;6.70;;
46288;SDS011;32022;46.158;14.604;2022-07-23T13:43:08;7.65;;;6.80;;
46288;SDS011;32022;46.158;14.604;2022-07-23T13:45:33;7.70;;;6.88;;
46288;SDS011;32022;46.158;14.604;2022-07-23T13:47:59;8.23;;;7.03;;
46288;SDS011;32022;46.158;14.604;2022-07-23T13:50:24;7.75;;;6.53;;
46288;SDS011;32022;46.158;14.604;2022-07-23T13:52:50;7.93;;;6.82;;
46288;SDS011;32022;46.158;14.604;2022-07-23T13:55:15;7.90;;;6.63;;
46288;SDS011;32022;46.158;14.604;2022-07-23T13:57:40;8.17;;;7.23;;
46288;SDS011;32022;46.158;14.604;2022-07-23T14:00:06;7.00;;;6.30;;
46288;SDS011;32022;46.158;14.604;2022-07-23T14:02:32;7.15;;;6.32;;
46288;SDS011;32022;46.158;14.604;2022-07-23T14:04:58;7.32;;;6.18;;
46288;SDS011;32022;46.158;14.604;2022-07-23T14:07:23;6.93;;;6.17;;
46288;SDS011;32022;46.158;14.604;2022-07-23T14:09:48;7.70;;;6.50;;
46288;SDS011;32022;46.158;14.604;2022-07-23T14:12:14;7.18;;;6.38;;
46288;SDS011;32022;46.158;14.604;2022-07-23T14:14:39;7.13;;;6.20;;
46288;SDS011;32022;46.158;14.604;2022-07-23T14:17:04;7.13;;;6.28;;
46288;SDS011;32022;46.158;14.604;2022-07-23T14:19:29;7.18;;;6.45;;
46288;SDS011;32022;46.158;14.604;2022-07-23T14:21:55;7.03;;;6.30;;
46288;SDS011;32022;46.158;14.604;2022-07-23T14:24:20;7.60;;;6.80;;
46288;SDS011;32022;46.158;14.604;2022-07-23T14:26:45;6.75;;;5.82;;
46288;SDS011;32022;46.158;14.604;2022-07-23T14:29:11;7.05;;;6.32;;
46288;SDS011;32022;46.158;14.604;2022-07-23T14:31:36;6.80;;;6.10;;
46288;SDS011;32022;46.158;14.604;2022-07-23T14:34:02;7.55;;;6.45;;
46288;SDS011;32022;46.158;14.604;2022-07-23T14:36:27;8.13;;;6.45;;
46288;SDS011;32022;46.158;14.604;2022-07-23T14:38:52;6.72;;;6.03;;
46288;SDS011;32022;46.158;14.604;2022-07-23T14:41:18;7.30;;;6.22;;
46288;SDS011;32022;46.158;14.604;2022-07-23T14:43:43;6.83;;;6.13;;
46288;SDS011;32022;46.158;14.604;2022-07-23T14:46:08;6.55;;;5.53;;
46288;SDS011;32022;46.158;14.604;2022-07-23T14:48:33;6.80;;;5.93;;
46288;SDS011;32022;46.158;14.604;2022-07-23T14:50:59;6.33;;;5.63;;
46288;SDS011;32022;46.158;14.604;2022-07-23T14:53:24;6.40;;;5.60;;
46288;SDS011;32022;46.158;14.604;2022-07-23T14:55:49;6.32;;;5.35;;
46288;SDS011;32022;46.158;14.604;2022-07-23T14:58:14;7.07;;;5.80;;
46288;SDS011;32022;46.158;14.604;2022-07-23T15:00:40;6.63;;;5.43;;
46288;SDS011;32022;46.158;14.604;2022-07-23T15:03:05;6.55;;;5.45;;
46288;SDS011;32022;46.158;14.604;2022-07-23T15:05:30;6.37;;;5.47;;
46288;SDS011;32022;46.158;14.604;2022-07-23T15:07:55;7.10;;;5.43;;
46288;SDS011;32022;46.158;14.604;2022-07-23T15:10:21;6.67;;;5.60;;